sensor_id;sensor_type;location;lat;lon;timestamp;temperature;humidity
22917;DHT22;11624;53.250;7.456;2022-11-20T00:00:54;6.83;55.96
22917;DHT22;11624;53.250;7.456;2022-11-20T00:03:24;6.85;55.87
22917;DHT22;11624;53.250;7.456;2022-11-20T00:05:52;6.90;55.78
22917;DHT22;11624;53.250;7.456;2022-11-20T00:08:20;6.93;55.75
22917;DHT22;11624;53.250;7.456;2022-11-20T00:10:48;6.95;55.71
22917;DHT22;11624;53.250;7.456;2022-11-20T00:13:16;6.96;55.73
22917;DHT22;11624;53.250;7.456;2022-11-20T00:15:44;6.98;55.70
22917;DHT22;11624;53.250;7.456;2022-11-20T00:18:12;7.00;55.66
22917;DHT22;11624;53.250;7.456;2022-11-20T00:20:42;6.96;55.68
22917;DHT22;11624;53.250;7.456;2022-11-20T00:23:10;6.93;55.75
22917;DHT22;11624;53.250;7.456;2022-11-20T00:25:38;6.91;55.87
22917;DHT22;11624;53.250;7.456;2022-11-20T00:28:06;6.94;55.87
22917;DHT22;11624;53.250;7.456;2022-11-20T00:30:34;6.99;55.83
22917;DHT22;11624;53.250;7.456;2022-11-20T00:33:02;6.99;55.80
22917;DHT22;11624;53.250;7.456;2022-11-20T00:35:30;7.02;55.83
22917;DHT22;11624;53.250;7.456;2022-11-20T00:38:00;7.05;55.72
22917;DHT22;11624;53.250;7.456;2022-11-20T00:40:28;7.02;55.71
22917;DHT22;11624;53.250;7.456;2022-11-20T00:42:56;7.01;55.79
22917;DHT22;11624;53.250;7.456;2022-11-20T00:45:24;7.04;55.83
22917;DHT22;11624;53.250;7.456;2022-11-20T00:47:52;7.10;55.77
22917;DHT22;11624;53.250;7.456;2022-11-20T00:50:20;7.14;55.66
22917;DHT22;11624;53.250;7.456;2022-11-20T00:52:48;7.18;55.55
22917;DHT22;11624;53.250;7.456;2022-11-20T00:55:17;7.20;55.46
22917;DHT22;11624;53.250;7.456;2022-11-20T00:57:45;7.24;55.43
22917;DHT22;11624;53.250;7.456;2022-11-20T01:00:14;7.26;55.37
22917;DHT22;11624;53.250;7.456;2022-11-20T01:02:42;7.27;55.30
22917;DHT22;11624;53.250;7.456;2022-11-20T01:05:10;7.27;55.23
22917;DHT22;11624;53.250;7.456;2022-11-20T01:07:38;7.27;55.25
22917;DHT22;11624;53.250;7.456;2022-11-20T01:10:06;7.27;55.25
22917;DHT22;11624;53.250;7.456;2022-11-20T01:12:36;7.27;55.22
22917;DHT22;11624;53.250;7.456;2022-11-20T01:15:05;7.27;55.15
22917;DHT22;11624;53.250;7.456;2022-11-20T01:17:33;7.25;55.20
22917;DHT22;11624;53.250;7.456;2022-11-20T01:20:01;7.26;55.17
22917;DHT22;11624;53.250;7.456;2022-11-20T01:22:29;7.31;55.13
22917;DHT22;11624;53.250;7.456;2022-11-20T01:24:57;7.34;55.04
22917;DHT22;11624;53.250;7.456;2022-11-20T01:27:25;7.39;55.02
22917;DHT22;11624;53.250;7.456;2022-11-20T01:29:54;7.39;54.99
22917;DHT22;11624;53.250;7.456;2022-11-20T01:32:27;7.40;54.99
22917;DHT22;11624;53.250;7.456;2022-11-20T01:34:55;7.43;54.89
22917;DHT22;11624;53.250;7.456;2022-11-20T01:37:23;7.45;54.83
22917;DHT22;11624;53.250;7.456;2022-11-20T01:39:51;7.46;54.84
22917;DHT22;11624;53.250;7.456;2022-11-20T01:42:19;7.48;54.74
22917;DHT22;11624;53.250;7.456;2022-11-20T01:48:07;7.31;54.78
22917;DHT22;11624;53.250;7.456;2022-11-20T01:50:35;7.23;54.97
22917;DHT22;11624;53.250;7.456;2022-11-20T01:53:05;7.19;55.13
22917;DHT22;11624;53.250;7.456;2022-11-20T01:55:38;7.16;55.16
22917;DHT22;11624;53.250;7.456;2022-11-20T01:58:08;7.19;55.23
22917;DHT22;11624;53.250;7.456;2022-11-20T02:00:36;7.25;55.23
22917;DHT22;11624;53.250;7.456;2022-11-20T02:03:09;7.23;55.10
22917;DHT22;11624;53.250;7.456;2022-11-20T02:05:43;7.28;55.08
22917;DHT22;11624;53.250;7.456;2022-11-20T02:08:13;7.35;55.05
22917;DHT22;11624;53.250;7.456;2022-11-20T02:10:41;7.39;54.93
22917;DHT22;11624;53.250;7.456;2022-11-20T02:13:09;7.39;54.94
22917;DHT22;11624;53.250;7.456;2022-11-20T02:15:55;7.38;55.02
22917;DHT22;11624;53.250;7.456;2022-11-20T02:18:24;7.34;55.04
22917;DHT22;11624;53.250;7.456;2022-11-20T02:20:57;7.31;55.04
22917;DHT22;11624;53.250;7.456;2022-11-20T02:23:32;7.13;55.14
22917;DHT22;11624;53.250;7.456;2022-11-20T02:26:04;7.13;55.36
22917;DHT22;11624;53.250;7.456;2022-11-20T02:28:33;7.12;55.44
22917;DHT22;11624;53.250;7.456;2022-11-20T02:31:01;7.12;55.52
22917;DHT22;11624;53.250;7.456;2022-11-20T02:33:29;7.18;55.39
22917;DHT22;11624;53.250;7.456;2022-11-20T02:35:57;7.27;55.20
22917;DHT22;11624;53.250;7.456;2022-11-20T02:38:26;7.24;55.19
22917;DHT22;11624;53.250;7.456;2022-11-20T02:40:54;7.24;55.16
22917;DHT22;11624;53.250;7.456;2022-11-20T02:43:23;7.23;55.08
22917;DHT22;11624;53.250;7.456;2022-11-20T02:45:51;7.17;55.16
22917;DHT22;11624;53.250;7.456;2022-11-20T02:48:19;7.15;55.26
22917;DHT22;11624;53.250;7.456;2022-11-20T02:50:50;7.17;55.26
22917;DHT22;11624;53.250;7.456;2022-11-20T02:53:18;7.20;55.26
22917;DHT22;11624;53.250;7.456;2022-11-20T02:55:47;7.16;55.36
22917;DHT22;11624;53.250;7.456;2022-11-20T02:58:15;7.16;55.39
22917;DHT22;11624;53.250;7.456;2022-11-20T03:00:44;7.19;55.38
22917;DHT22;11624;53.250;7.456;2022-11-20T03:03:12;7.15;55.52
22917;DHT22;11624;53.250;7.456;2022-11-20T03:05:40;7.12;55.61
22917;DHT22;11624;53.250;7.456;2022-11-20T03:08:08;7.08;55.68
22917;DHT22;11624;53.250;7.456;2022-11-20T03:10:36;7.13;55.60
22917;DHT22;11624;53.250;7.456;2022-11-20T03:13:04;7.18;55.51
22917;DHT22;11624;53.250;7.456;2022-11-20T03:15:33;7.19;55.52
22917;DHT22;11624;53.250;7.456;2022-11-20T03:18:02;7.15;55.55
22917;DHT22;11624;53.250;7.456;2022-11-20T03:20:32;7.12;55.61
22917;DHT22;11624;53.250;7.456;2022-11-20T03:23:01;7.07;55.73
22917;DHT22;11624;53.250;7.456;2022-11-20T03:25:29;7.09;55.79
22917;DHT22;11624;53.250;7.456;2022-11-20T03:27:57;7.11;55.70
22917;DHT22;11624;53.250;7.456;2022-11-20T03:30:25;7.07;55.68
22917;DHT22;11624;53.250;7.456;2022-11-20T03:32:56;7.02;55.75
22917;DHT22;11624;53.250;7.456;2022-11-20T03:35:26;6.98;55.74
22917;DHT22;11624;53.250;7.456;2022-11-20T03:37:54;6.95;55.51
22917;DHT22;11624;53.250;7.456;2022-11-20T03:40:22;6.86;55.71
22917;DHT22;11624;53.250;7.456;2022-11-20T03:42:50;6.83;55.68
22917;DHT22;11624;53.250;7.456;2022-11-20T03:45:18;6.87;55.76
22917;DHT22;11624;53.250;7.456;2022-11-20T03:47:46;6.93;55.68
22917;DHT22;11624;53.250;7.456;2022-11-20T03:50:14;6.88;55.71
22917;DHT22;11624;53.250;7.456;2022-11-20T03:52:44;6.84;55.66
22917;DHT22;11624;53.250;7.456;2022-11-20T03:55:12;6.83;55.68
22917;DHT22;11624;53.250;7.456;2022-11-20T03:57:40;6.85;55.59
22917;DHT22;11624;53.250;7.456;2022-11-20T04:00:09;6.85;55.59
22917;DHT22;11624;53.250;7.456;2022-11-20T04:02:37;6.78;55.81
22917;DHT22;11624;53.250;7.456;2022-11-20T04:05:06;6.78;55.84
22917;DHT22;11624;53.250;7.456;2022-11-20T04:07:34;6.79;55.82
22917;DHT22;11624;53.250;7.456;2022-11-20T04:10:05;6.76;55.85
22917;DHT22;11624;53.250;7.456;2022-11-20T04:12:33;6.74;55.92
22917;DHT22;11624;53.250;7.456;2022-11-20T04:15:01;6.72;55.97
22917;DHT22;11624;53.250;7.456;2022-11-20T04:17:29;6.74;55.90
22917;DHT22;11624;53.250;7.456;2022-11-20T04:19:57;6.70;56.00
22917;DHT22;11624;53.250;7.456;2022-11-20T04:22:25;6.70;55.87
22917;DHT22;11624;53.250;7.456;2022-11-20T04:24:53;6.71;55.89
22917;DHT22;11624;53.250;7.456;2022-11-20T04:27:23;6.82;55.48
22917;DHT22;11624;53.250;7.456;2022-11-20T04:29:51;6.85;55.33
22917;DHT22;11624;53.250;7.456;2022-11-20T04:32:19;6.83;55.33
22917;DHT22;11624;53.250;7.456;2022-11-20T04:34:47;6.84;55.38
22917;DHT22;11624;53.250;7.456;2022-11-20T04:37:15;6.86;55.36
22917;DHT22;11624;53.250;7.456;2022-11-20T04:39:43;6.91;55.18
22917;DHT22;11624;53.250;7.456;2022-11-20T04:42:11;6.89;55.13
22917;DHT22;11624;53.250;7.456;2022-11-20T04:44:58;6.87;55.23
22917;DHT22;11624;53.250;7.456;2022-11-20T04:47:26;6.84;55.23
22917;DHT22;11624;53.250;7.456;2022-11-20T04:49:54;6.76;55.26
22917;DHT22;11624;53.250;7.456;2022-11-20T04:52:22;6.75;55.42
22917;DHT22;11624;53.250;7.456;2022-11-20T04:54:50;6.76;55.43
22917;DHT22;11624;53.250;7.456;2022-11-20T04:57:20;6.79;55.44
22917;DHT22;11624;53.250;7.456;2022-11-20T04:59:48;6.81;55.36
22917;DHT22;11624;53.250;7.456;2022-11-20T05:02:17;6.84;55.30
22917;DHT22;11624;53.250;7.456;2022-11-20T05:04:45;6.86;55.36
22917;DHT22;11624;53.250;7.456;2022-11-20T05:07:13;6.87;55.34
22917;DHT22;11624;53.250;7.456;2022-11-20T05:09:42;6.88;55.32
22917;DHT22;11624;53.250;7.456;2022-11-20T05:12:10;6.85;55.34
22917;DHT22;11624;53.250;7.456;2022-11-20T05:14:38;6.87;55.35
22917;DHT22;11624;53.250;7.456;2022-11-20T05:17:06;6.90;55.28
22917;DHT22;11624;53.250;7.456;2022-11-20T05:19:38;6.96;55.21
22917;DHT22;11624;53.250;7.456;2022-11-20T05:22:06;6.96;55.02
22917;DHT22;11624;53.250;7.456;2022-11-20T05:24:34;6.97;55.09
22917;DHT22;11624;53.250;7.456;2022-11-20T05:27:03;6.96;55.13
22917;DHT22;11624;53.250;7.456;2022-11-20T05:29:31;6.98;55.13
22917;DHT22;11624;53.250;7.456;2022-11-20T05:31:59;6.98;55.13
22917;DHT22;11624;53.250;7.456;2022-11-20T05:34:27;6.96;55.09
22917;DHT22;11624;53.250;7.456;2022-11-20T05:36:56;6.90;55.20
22917;DHT22;11624;53.250;7.456;2022-11-20T05:39:24;6.88;55.38
22917;DHT22;11624;53.250;7.456;2022-11-20T05:41:52;6.87;55.49
22917;DHT22;11624;53.250;7.456;2022-11-20T05:44:47;6.91;55.52
22917;DHT22;11624;53.250;7.456;2022-11-20T05:47:15;6.93;55.57
22917;DHT22;11624;53.250;7.456;2022-11-20T05:49:43;6.90;55.65
22917;DHT22;11624;53.250;7.456;2022-11-20T05:52:12;6.94;55.65
22917;DHT22;11624;53.250;7.456;2022-11-20T05:54:41;6.88;55.71
22917;DHT22;11624;53.250;7.456;2022-11-20T05:57:08;6.83;55.81
22917;DHT22;11624;53.250;7.456;2022-11-20T05:59:36;6.81;55.87
22917;DHT22;11624;53.250;7.456;2022-11-20T06:02:05;6.80;55.84
22917;DHT22;11624;53.250;7.456;2022-11-20T06:04:33;6.83;55.78
22917;DHT22;11624;53.250;7.456;2022-11-20T06:07:01;6.76;55.90
22917;DHT22;11624;53.250;7.456;2022-11-20T06:09:30;6.79;55.94
22917;DHT22;11624;53.250;7.456;2022-11-20T06:11:58;6.83;55.76
22917;DHT22;11624;53.250;7.456;2022-11-20T06:14:26;6.86;55.71
22917;DHT22;11624;53.250;7.456;2022-11-20T06:16:54;6.83;55.74
22917;DHT22;11624;53.250;7.456;2022-11-20T06:19:23;6.81;55.66
22917;DHT22;11624;53.250;7.456;2022-11-20T06:21:51;6.82;55.63
22917;DHT22;11624;53.250;7.456;2022-11-20T06:24:19;6.83;55.65
22917;DHT22;11624;53.250;7.456;2022-11-20T06:26:48;6.85;55.60
22917;DHT22;11624;53.250;7.456;2022-11-20T06:29:16;6.83;55.60
22917;DHT22;11624;53.250;7.456;2022-11-20T06:31:44;6.89;55.53
22917;DHT22;11624;53.250;7.456;2022-11-20T06:34:12;6.93;55.38
22917;DHT22;11624;53.250;7.456;2022-11-20T06:36:40;6.94;55.33
22917;DHT22;11624;53.250;7.456;2022-11-20T06:39:09;6.97;55.23
22917;DHT22;11624;53.250;7.456;2022-11-20T06:41:37;6.97;55.22
22917;DHT22;11624;53.250;7.456;2022-11-20T06:44:06;7.00;55.13
22917;DHT22;11624;53.250;7.456;2022-11-20T06:46:34;7.02;55.02
22917;DHT22;11624;53.250;7.456;2022-11-20T06:49:02;7.01;54.89
22917;DHT22;11624;53.250;7.456;2022-11-20T06:51:30;6.98;54.75
22917;DHT22;11624;53.250;7.456;2022-11-20T06:53:58;6.90;54.81
22917;DHT22;11624;53.250;7.456;2022-11-20T06:56:27;6.84;54.97
22917;DHT22;11624;53.250;7.456;2022-11-20T06:58:55;6.81;55.04
22917;DHT22;11624;53.250;7.456;2022-11-20T07:01:25;6.76;55.08
22917;DHT22;11624;53.250;7.456;2022-11-20T07:03:53;6.73;55.14
22917;DHT22;11624;53.250;7.456;2022-11-20T07:06:21;6.74;55.07
22917;DHT22;11624;53.250;7.456;2022-11-20T07:08:50;6.81;54.99
22917;DHT22;11624;53.250;7.456;2022-11-20T07:11:19;6.85;54.87
22917;DHT22;11624;53.250;7.456;2022-11-20T07:13:47;6.87;54.75
22917;DHT22;11624;53.250;7.456;2022-11-20T07:16:15;6.88;54.75
22917;DHT22;11624;53.250;7.456;2022-11-20T07:18:45;6.86;54.88
22917;DHT22;11624;53.250;7.456;2022-11-20T07:21:16;6.85;54.78
22917;DHT22;11624;53.250;7.456;2022-11-20T07:23:44;6.83;54.79
22917;DHT22;11624;53.250;7.456;2022-11-20T07:26:12;6.82;54.75
22917;DHT22;11624;53.250;7.456;2022-11-20T07:28:44;6.73;54.84
22917;DHT22;11624;53.250;7.456;2022-11-20T07:31:12;6.69;55.20
22917;DHT22;11624;53.250;7.456;2022-11-20T07:33:46;6.63;55.49
22917;DHT22;11624;53.250;7.456;2022-11-20T07:36:14;6.67;55.26
22917;DHT22;11624;53.250;7.456;2022-11-20T07:38:42;6.70;55.28
22917;DHT22;11624;53.250;7.456;2022-11-20T07:41:10;6.63;55.31
22917;DHT22;11624;53.250;7.456;2022-11-20T07:43:38;6.71;55.10
22917;DHT22;11624;53.250;7.456;2022-11-20T07:46:07;6.76;54.91
22917;DHT22;11624;53.250;7.456;2022-11-20T07:48:35;6.86;54.68
22917;DHT22;11624;53.250;7.456;2022-11-20T07:51:05;6.84;54.64
22917;DHT22;11624;53.250;7.456;2022-11-20T07:53:33;6.73;54.62
22917;DHT22;11624;53.250;7.456;2022-11-20T07:56:01;6.70;54.65
22917;DHT22;11624;53.250;7.456;2022-11-20T07:58:30;6.73;54.71
22917;DHT22;11624;53.250;7.456;2022-11-20T08:01:02;6.87;54.47
22917;DHT22;11624;53.250;7.456;2022-11-20T08:03:30;6.99;54.40
22917;DHT22;11624;53.250;7.456;2022-11-20T08:05:59;7.05;54.20
22917;DHT22;11624;53.250;7.456;2022-11-20T08:08:29;7.12;53.93
22917;DHT22;11624;53.250;7.456;2022-11-20T08:11:00;7.13;53.93
22917;DHT22;11624;53.250;7.456;2022-11-20T08:13:42;7.12;53.89
22917;DHT22;11624;53.250;7.456;2022-11-20T08:16:27;7.13;53.81
22917;DHT22;11624;53.250;7.456;2022-11-20T08:18:55;7.17;53.71
22917;DHT22;11624;53.250;7.456;2022-11-20T08:21:24;7.25;53.57
22917;DHT22;11624;53.250;7.456;2022-11-20T08:23:53;7.33;53.50
22917;DHT22;11624;53.250;7.456;2022-11-20T08:26:21;7.31;53.43
22917;DHT22;11624;53.250;7.456;2022-11-20T08:28:53;7.28;53.21
22917;DHT22;11624;53.250;7.456;2022-11-20T08:31:22;7.17;52.95
22917;DHT22;11624;53.250;7.456;2022-11-20T08:33:50;7.25;53.25
22917;DHT22;11624;53.250;7.456;2022-11-20T08:36:19;7.33;53.07
22917;DHT22;11624;53.250;7.456;2022-11-20T08:38:48;7.34;52.95
22917;DHT22;11624;53.250;7.456;2022-11-20T08:41:17;7.39;52.88
22917;DHT22;11624;53.250;7.456;2022-11-20T08:43:56;7.38;53.04
22917;DHT22;11624;53.250;7.456;2022-11-20T08:46:26;7.37;52.98
22917;DHT22;11624;53.250;7.456;2022-11-20T08:48:55;7.43;52.91
22917;DHT22;11624;53.250;7.456;2022-11-20T08:51:23;7.49;53.04
22917;DHT22;11624;53.250;7.456;2022-11-20T08:53:51;7.60;52.96
22917;DHT22;11624;53.250;7.456;2022-11-20T08:56:20;7.68;52.92
22917;DHT22;11624;53.250;7.456;2022-11-20T08:58:49;7.76;52.87
22917;DHT22;11624;53.250;7.456;2022-11-20T09:01:38;7.85;52.77
22917;DHT22;11624;53.250;7.456;2022-11-20T09:04:06;7.94;52.51
22917;DHT22;11624;53.250;7.456;2022-11-20T09:06:34;7.96;52.40
22917;DHT22;11624;53.250;7.456;2022-11-20T09:09:02;7.99;52.32
22917;DHT22;11624;53.250;7.456;2022-11-20T09:11:34;8.03;52.27
22917;DHT22;11624;53.250;7.456;2022-11-20T09:14:03;8.06;52.27
22917;DHT22;11624;53.250;7.456;2022-11-20T09:16:31;8.01;52.09
22917;DHT22;11624;53.250;7.456;2022-11-20T09:18:59;7.98;52.11
22917;DHT22;11624;53.250;7.456;2022-11-20T09:21:47;7.74;52.48
22917;DHT22;11624;53.250;7.456;2022-11-20T09:24:15;7.71;52.50
22917;DHT22;11624;53.250;7.456;2022-11-20T09:26:44;7.86;52.53
22917;DHT22;11624;53.250;7.456;2022-11-20T09:29:12;7.91;52.58
22917;DHT22;11624;53.250;7.456;2022-11-20T09:31:40;8.04;52.39
22917;DHT22;11624;53.250;7.456;2022-11-20T09:34:09;8.09;52.15
22917;DHT22;11624;53.250;7.456;2022-11-20T09:36:37;8.16;52.11
22917;DHT22;11624;53.250;7.456;2022-11-20T09:39:04;8.06;51.44
22917;DHT22;11624;53.250;7.456;2022-11-20T09:42:07;8.05;51.87
22917;DHT22;11624;53.250;7.456;2022-11-20T09:44:50;8.14;51.93
22917;DHT22;11624;53.250;7.456;2022-11-20T09:47:27;8.21;52.11
22917;DHT22;11624;53.250;7.456;2022-11-20T09:50:07;8.27;51.97
22917;DHT22;11624;53.250;7.456;2022-11-20T09:52:46;8.28;51.86
22917;DHT22;11624;53.250;7.456;2022-11-20T09:55:18;8.37;51.90
22917;DHT22;11624;53.250;7.456;2022-11-20T09:57:48;8.34;51.72
22917;DHT22;11624;53.250;7.456;2022-11-20T10:00:19;8.34;51.55
22917;DHT22;11624;53.250;7.456;2022-11-20T10:02:52;8.37;51.55
22917;DHT22;11624;53.250;7.456;2022-11-20T10:05:26;8.48;51.59
22917;DHT22;11624;53.250;7.456;2022-11-20T10:08:04;8.44;51.21
22917;DHT22;11624;53.250;7.456;2022-11-20T10:10:41;8.34;51.40
22917;DHT22;11624;53.250;7.456;2022-11-20T10:13:23;8.42;51.49
22917;DHT22;11624;53.250;7.456;2022-11-20T10:16:02;8.47;51.55
22917;DHT22;11624;53.250;7.456;2022-11-20T10:18:48;8.46;51.28
22917;DHT22;11624;53.250;7.456;2022-11-20T10:21:27;8.32;51.15
22917;DHT22;11624;53.250;7.456;2022-11-20T10:24:28;8.26;51.62
22917;DHT22;11624;53.250;7.456;2022-11-20T10:27:04;8.21;51.69
22917;DHT22;11624;53.250;7.456;2022-11-20T10:29:36;8.30;51.82
22917;DHT22;11624;53.250;7.456;2022-11-20T10:32:11;8.32;51.82
22917;DHT22;11624;53.250;7.456;2022-11-20T10:34:48;8.47;51.59
22917;DHT22;11624;53.250;7.456;2022-11-20T10:37:22;8.52;51.49
22917;DHT22;11624;53.250;7.456;2022-11-20T10:39:55;8.59;51.39
22917;DHT22;11624;53.250;7.456;2022-11-20T10:42:30;8.61;51.26
22917;DHT22;11624;53.250;7.456;2022-11-20T10:45:11;8.65;51.11
22917;DHT22;11624;53.250;7.456;2022-11-20T10:47:41;8.64;51.10
22917;DHT22;11624;53.250;7.456;2022-11-20T10:50:11;8.61;51.13
22917;DHT22;11624;53.250;7.456;2022-11-20T10:52:52;8.66;51.28
22917;DHT22;11624;53.250;7.456;2022-11-20T10:55:28;8.74;50.92
22917;DHT22;11624;53.250;7.456;2022-11-20T10:58:03;8.60;50.82
22917;DHT22;11624;53.250;7.456;2022-11-20T11:00:35;8.55;50.91
22917;DHT22;11624;53.250;7.456;2022-11-20T11:03:20;8.52;50.53
22917;DHT22;11624;53.250;7.456;2022-11-20T11:05:53;8.53;50.79
22917;DHT22;11624;53.250;7.456;2022-11-20T11:08:22;8.50;50.97
22917;DHT22;11624;53.250;7.456;2022-11-20T11:10:57;8.73;50.96
22917;DHT22;11624;53.250;7.456;2022-11-20T11:13:26;8.81;50.80
22917;DHT22;11624;53.250;7.456;2022-11-20T11:15:56;8.68;50.72
22917;DHT22;11624;53.250;7.456;2022-11-20T11:18:26;8.64;50.67
22917;DHT22;11624;53.250;7.456;2022-11-20T11:20:56;8.85;50.62
22917;DHT22;11624;53.250;7.456;2022-11-20T11:23:32;8.94;50.23
22917;DHT22;11624;53.250;7.456;2022-11-20T11:26:02;8.97;50.03
22917;DHT22;11624;53.250;7.456;2022-11-20T11:28:31;9.03;50.10
22917;DHT22;11624;53.250;7.456;2022-11-20T11:31:00;9.14;50.20
22917;DHT22;11624;53.250;7.456;2022-11-20T11:33:30;9.30;49.91
22917;DHT22;11624;53.250;7.456;2022-11-20T11:36:02;9.30;49.31
22917;DHT22;11624;53.250;7.456;2022-11-20T11:38:34;9.38;49.38
22917;DHT22;11624;53.250;7.456;2022-11-20T11:41:04;9.51;49.41
22917;DHT22;11624;53.250;7.456;2022-11-20T11:43:34;9.71;49.53
22917;DHT22;11624;53.250;7.456;2022-11-20T11:46:31;9.89;48.88
22917;DHT22;11624;53.250;7.456;2022-11-20T11:49:01;9.92;48.83
22917;DHT22;11624;53.250;7.456;2022-11-20T11:51:34;9.97;48.39
22917;DHT22;11624;53.250;7.456;2022-11-20T11:54:15;9.99;48.15
22917;DHT22;11624;53.250;7.456;2022-11-20T11:56:45;9.81;48.03
22917;DHT22;11624;53.250;7.456;2022-11-20T11:59:18;9.76;48.06
22917;DHT22;11624;53.250;7.456;2022-11-20T12:01:55;9.74;48.46
22917;DHT22;11624;53.250;7.456;2022-11-20T12:04:37;9.83;48.26
22917;DHT22;11624;53.250;7.456;2022-11-20T12:07:12;9.99;48.14
22917;DHT22;11624;53.250;7.456;2022-11-20T12:10:04;10.01;47.97
22917;DHT22;11624;53.250;7.456;2022-11-20T12:12:37;9.88;47.73
22917;DHT22;11624;53.250;7.456;2022-11-20T12:15:10;9.84;47.71
22917;DHT22;11624;53.250;7.456;2022-11-20T12:17:40;9.83;47.86
22917;DHT22;11624;53.250;7.456;2022-11-20T12:20:13;9.77;47.67
22917;DHT22;11624;53.250;7.456;2022-11-20T12:22:44;9.82;47.97
22917;DHT22;11624;53.250;7.456;2022-11-20T12:25:22;9.77;47.69
22917;DHT22;11624;53.250;7.456;2022-11-20T12:28:23;9.69;47.42
22917;DHT22;11624;53.250;7.456;2022-11-20T12:34:09;9.59;47.60
22917;DHT22;11624;53.250;7.456;2022-11-20T12:36:42;9.52;47.62
22917;DHT22;11624;53.250;7.456;2022-11-20T12:39:24;9.50;47.15
22917;DHT22;11624;53.250;7.456;2022-11-20T12:45:18;9.29;46.93
22917;DHT22;11624;53.250;7.456;2022-11-20T12:48:15;9.32;47.61
22917;DHT22;11624;53.250;7.456;2022-11-20T12:50:56;9.38;47.36
22917;DHT22;11624;53.250;7.456;2022-11-20T12:53:45;9.51;47.08
22917;DHT22;11624;53.250;7.456;2022-11-20T12:56:27;9.49;46.68
22917;DHT22;11624;53.250;7.456;2022-11-20T12:59:12;9.60;47.15
22917;DHT22;11624;53.250;7.456;2022-11-20T13:01:46;9.69;46.89
22917;DHT22;11624;53.250;7.456;2022-11-20T13:04:28;9.89;46.30
22917;DHT22;11624;53.250;7.456;2022-11-20T13:07:05;10.03;45.28
22917;DHT22;11624;53.250;7.456;2022-11-20T13:09:36;9.97;44.79
22917;DHT22;11624;53.250;7.456;2022-11-20T13:12:11;9.85;44.90
22917;DHT22;11624;53.250;7.456;2022-11-20T13:14:45;9.88;44.93
22917;DHT22;11624;53.250;7.456;2022-11-20T13:17:20;9.94;44.80
22917;DHT22;11624;53.250;7.456;2022-11-20T13:19:52;9.96;44.53
22917;DHT22;11624;53.250;7.456;2022-11-20T13:22:26;9.98;44.45
22917;DHT22;11624;53.250;7.456;2022-11-20T13:24:55;10.00;44.32
22917;DHT22;11624;53.250;7.456;2022-11-20T13:27:23;10.00;44.14
22917;DHT22;11624;53.250;7.456;2022-11-20T13:30:12;9.99;44.11
22917;DHT22;11624;53.250;7.456;2022-11-20T13:32:49;10.01;43.96
22917;DHT22;11624;53.250;7.456;2022-11-20T13:35:26;9.83;43.11
22917;DHT22;11624;53.250;7.456;2022-11-20T13:38:07;9.74;42.26
22917;DHT22;11624;53.250;7.456;2022-11-20T13:40:38;9.74;42.32
22917;DHT22;11624;53.250;7.456;2022-11-20T13:43:20;9.71;42.60
22917;DHT22;11624;53.250;7.456;2022-11-20T13:46:00;9.66;41.49
22917;DHT22;11624;53.250;7.456;2022-11-20T13:48:31;9.68;41.69
22917;DHT22;11624;53.250;7.456;2022-11-20T13:51:07;9.68;40.90
22917;DHT22;11624;53.250;7.456;2022-11-20T13:54:06;9.76;41.40
22917;DHT22;11624;53.250;7.456;2022-11-20T13:56:48;9.74;41.49
22917;DHT22;11624;53.250;7.456;2022-11-20T13:59:36;9.71;41.42
22917;DHT22;11624;53.250;7.456;2022-11-20T14:02:11;9.68;41.57
22917;DHT22;11624;53.250;7.456;2022-11-20T14:04:44;9.62;40.91
22917;DHT22;11624;53.250;7.456;2022-11-20T14:07:14;9.62;40.69
22917;DHT22;11624;53.250;7.456;2022-11-20T14:09:52;9.42;40.05
22917;DHT22;11624;53.250;7.456;2022-11-20T14:12:23;9.25;40.32
22917;DHT22;11624;53.250;7.456;2022-11-20T14:14:54;9.23;40.43
22917;DHT22;11624;53.250;7.456;2022-11-20T14:17:28;9.19;40.65
22917;DHT22;11624;53.250;7.456;2022-11-20T14:19:59;9.20;40.68
22917;DHT22;11624;53.250;7.456;2022-11-20T14:22:29;9.25;40.92
22917;DHT22;11624;53.250;7.456;2022-11-20T14:25:05;9.29;41.10
22917;DHT22;11624;53.250;7.456;2022-11-20T14:27:36;9.30;41.67
22917;DHT22;11624;53.250;7.456;2022-11-20T14:30:06;9.24;42.04
22917;DHT22;11624;53.250;7.456;2022-11-20T14:32:35;9.25;42.32
22917;DHT22;11624;53.250;7.456;2022-11-20T14:35:08;9.22;42.57
22917;DHT22;11624;53.250;7.456;2022-11-20T14:37:38;9.19;42.81
22917;DHT22;11624;53.250;7.456;2022-11-20T14:43:01;9.16;42.97
22917;DHT22;11624;53.250;7.456;2022-11-20T14:45:30;9.06;43.06
22917;DHT22;11624;53.250;7.456;2022-11-20T14:47:59;8.81;43.36
22917;DHT22;11624;53.250;7.456;2022-11-20T14:50:28;8.66;43.77
22917;DHT22;11624;53.250;7.456;2022-11-20T14:52:58;8.66;43.84
22917;DHT22;11624;53.250;7.456;2022-11-20T14:55:29;8.63;44.00
22917;DHT22;11624;53.250;7.456;2022-11-20T14:58:01;8.56;44.14
22917;DHT22;11624;53.250;7.456;2022-11-20T15:00:30;8.47;44.51
22917;DHT22;11624;53.250;7.456;2022-11-20T15:03:00;8.44;44.57
22917;DHT22;11624;53.250;7.456;2022-11-20T15:05:47;8.41;44.54
22917;DHT22;11624;53.250;7.456;2022-11-20T15:08:16;8.35;44.99
22917;DHT22;11624;53.250;7.456;2022-11-20T15:10:46;8.33;45.06
22917;DHT22;11624;53.250;7.456;2022-11-20T15:13:23;8.20;44.97
22917;DHT22;11624;53.250;7.456;2022-11-20T15:15:54;8.18;45.31
22917;DHT22;11624;53.250;7.456;2022-11-20T15:18:36;8.24;45.23
22917;DHT22;11624;53.250;7.456;2022-11-20T15:21:10;8.26;45.07
22917;DHT22;11624;53.250;7.456;2022-11-20T15:23:38;8.11;45.29
22917;DHT22;11624;53.250;7.456;2022-11-20T15:26:11;8.12;45.32
22917;DHT22;11624;53.250;7.456;2022-11-20T15:28:48;8.16;45.31
22917;DHT22;11624;53.250;7.456;2022-11-20T15:31:18;8.21;45.23
22917;DHT22;11624;53.250;7.456;2022-11-20T15:33:47;8.16;45.53
22917;DHT22;11624;53.250;7.456;2022-11-20T15:36:16;8.13;45.72
22917;DHT22;11624;53.250;7.456;2022-11-20T15:38:44;8.06;45.99
22917;DHT22;11624;53.250;7.456;2022-11-20T15:41:12;7.87;46.57
22917;DHT22;11624;53.250;7.456;2022-11-20T15:43:41;7.87;46.55
22917;DHT22;11624;53.250;7.456;2022-11-20T15:46:12;7.90;46.50
22917;DHT22;11624;53.250;7.456;2022-11-20T15:48:43;7.91;46.55
22917;DHT22;11624;53.250;7.456;2022-11-20T15:51:21;7.92;46.44
22917;DHT22;11624;53.250;7.456;2022-11-20T15:53:54;7.96;46.45
22917;DHT22;11624;53.250;7.456;2022-11-20T15:56:23;7.94;46.42
22917;DHT22;11624;53.250;7.456;2022-11-20T15:58:51;7.90;46.48
22917;DHT22;11624;53.250;7.456;2022-11-20T16:01:22;7.85;46.54
22917;DHT22;11624;53.250;7.456;2022-11-20T16:03:50;7.81;46.67
22917;DHT22;11624;53.250;7.456;2022-11-20T16:06:19;7.76;46.75
22917;DHT22;11624;53.250;7.456;2022-11-20T16:08:47;7.63;46.90
22917;DHT22;11624;53.250;7.456;2022-11-20T16:11:17;7.62;46.92
22917;DHT22;11624;53.250;7.456;2022-11-20T16:13:45;7.60;46.82
22917;DHT22;11624;53.250;7.456;2022-11-20T16:16:34;7.52;46.81
22917;DHT22;11624;53.250;7.456;2022-11-20T16:19:02;7.52;46.89
22917;DHT22;11624;53.250;7.456;2022-11-20T16:21:36;7.53;46.73
22917;DHT22;11624;53.250;7.456;2022-11-20T16:24:05;7.50;46.76